Acadiana Regional Airport
KARA : now visible

Airfield :











YOU CAN JOIN US ON...

 
LOGIN :

Register | Disclaimer

   EN    FR    IT 

 









Legend :    VFR   Marginal VFR   IFR   Intensive IFR   Very Intensive IFR
Visi :
Ceiling :
>= 8 km
>= 3000ft
5 to 8 km
1000 to 3000 ft
1500m to 5 km
500 to 1000 ft
800 to 1500m
200 to 500 ft
< 800m
< 200 ft
Symbols :   Thunderstorms  Fog  Heavy snow  Heavy precipitations  Wind > 20 kt






- Airport Elevation : 24 ft


KARA - Acadiana Regional

CURRENT METAR :
  • 231953Z 19010KT 10SM SCT034 BKN048 19/13 A3014 RMK AO2 SLP204 T01940133

EXPIRED METARs :
  • 231853Z 19010KT 10SM BKN032 BKN042 19/13 A3016 RMK AO2 SLP211 T01940133
  • 231753Z 15010G16KT 10SM OVC032 18/13 A3020 RMK AO2 SLP226 60000 T01830128 10189 20078 58018

TAF KARA
Valid from the 23 at 18:00 until the 24 at 18:00 UTC


231720Z 2318/2418 16010KT P6SM BKN050
FM241200 16008KT P6SM OVC035
FM241500 19012KT P6SM VCSH OVC025



MET'MAP, your aeronautical weather chart ! - Copyright ORBIFLY December 2007 - Disclaimer

ORBIFLY MET'MAP TEAM :

Programming & Development : Alexandra Zaïnal
Concept & original design : Baudouin d'Aumeries
Assistance for programming : Marc-Olivier Méhu
Technical & hardware support : Manuel Goepfert

Contact : metmap@orbifly.com




SOURCES & CREDITS :

   NOAA       Earth
Advisory